• Join FlightAware (Why Join?)
  • Login
  • US Flag 
06:24AM EDT


 

Airport Tracker/Info


-or-


 

Live Flight TrackerFlight Track Log ✈ DAL268 ✈ 31-Aug-2013 ✈ KSFO - KJFK

Flight Track Log - Related Links

Times and Time Zones

All times are in EDT time to prevent confusion due to time zone crossing. See the DAL268 flight status page for this flight to view local times or setup timezone preferences in your user account.

Time Position Orientation Groundspeed Altitude Reporting Facility
EDT Latitude Longitude Course Direction KTS MPH feet Rate Location/Type
02:33PM 37.6110 -122.3780 360° North 98 113  Level FlightAware
02:33PM 37.6245 -122.3690 28° Northeast 173 199 100 1,140 Climbing FlightAware ADS-B
02:33PM 37.6339 -122.3630 27° Northeast 177 204 700 2,460 Climbing FlightAware ADS-B
02:33PM 37.6404 -122.3560 40° Northeast 190 219 1,100 2,580 Climbing FlightAware ADS-B
02:34PM 37.6439 -122.3500 54° Northeast 195 224 1,400 2,100 Climbing FlightAware ADS-B
02:34PM 37.6520 -122.3370 52° Northeast 211 243 1,800 1,620 Climbing FlightAware ADS-B
02:34PM 37.6613 -122.3220 52° Northeast 226 260 2,200 1,800 Climbing FlightAware ADS-B
02:34PM 37.6722 -122.3070 47° Northeast 238 274 2,700 1,980 Climbing FlightAware ADS-B
02:35PM 37.6838 -122.2900 49° Northeast 249 287 3,200 1,800 Climbing FlightAware ADS-B
02:35PM 37.6960 -122.2730 48° Northeast 270 311 3,600 2,220 Climbing FlightAware ADS-B
02:35PM 37.7104 -122.2530 48° Northeast 274 315 4,400 2,640 Climbing FlightAware ADS-B
02:35PM 37.7276 -122.2290 48° Northeast 278 320 5,300 2,460 Climbing FlightAware ADS-B
02:36PM 37.7413 -122.2100 48° Northeast 286 329 5,900 2,340 Climbing FlightAware ADS-B
02:36PM 37.7576 -122.1880 47° Northeast 292 336 6,600 2,160 Climbing FlightAware ADS-B
02:36PM 37.7646 -122.1800 42° Northeast 297 342 6,800 2,640 Climbing FlightAware ADS-B
02:36PM 37.7845 -122.1600 38° Northeast 298 343 7,700 2,520 Climbing FlightAware ADS-B
02:37PM 37.8007 -122.1450 36° Northeast 304 350 8,200 1,800 Climbing FlightAware ADS-B
02:37PM 37.8187 -122.1280 37° Northeast 315 362 8,600 2,040 Climbing FlightAware ADS-B
02:37PM 37.8349 -122.1130 36° Northeast 316 364 9,200 2,640 Climbing FlightAware ADS-B
02:37PM 37.8531 -122.0960 36° Northeast 317 365 9,900 1,740 Climbing FlightAware ADS-B
02:38PM 37.8918 -122.0600 36° Northeast 346 398 10,600 1,320 Climbing FlightAware ADS-B
02:38PM 37.9314 -122.0240 36° Northeast 372 428 11,300 1,380 Climbing FlightAware ADS-B
02:39PM 37.9754 -121.9840 36° Northeast 394 453 12,000 1,500 Climbing FlightAware ADS-B
02:39PM 38.0247 -121.9380 36° Northeast 407 468 12,900 1,980 Climbing FlightAware ADS-B
02:40PM 38.1090 -121.8610 36° Northeast 412 474 15,000 2,280 Climbing FlightAware
02:41PM 38.1620 -121.8130 35° Northeast 411 473 16,300 2,100 Climbing FlightAware
02:41PM 38.2160 -121.7630 36° Northeast 419 482 17,400 1,680 Climbing FlightAware
02:42PM 38.2710 -121.7110 37° Northeast 428 493 18,300 1,620 Climbing FlightAware
02:43PM 38.3270 -121.6600 36° Northeast 436 502 19,300 1,560 Climbing FlightAware
02:43PM 38.3860 -121.6050 36° Northeast 442 509 20,200 1,500 Climbing FlightAware
02:44PM 38.4400 -121.5490 39° Northeast 448 516 21,100 1,500 Climbing FlightAware
02:44PM 38.4910 -121.4720 50° Northeast 455 524 22,000 1,440 Climbing FlightAware
02:45PM 38.5330 -121.4010 53° Northeast 460 529 22,800 1,440 Climbing FlightAware
02:46PM 38.5780 -121.3210 54° Northeast 465 535 23,700 1,380 Climbing FlightAware
02:46PM 38.5978 -121.2870 53° Northeast 468 539 24,000 1,140 Climbing FlightAware ADS-B
02:47PM 38.6710 -121.1600 54° Northeast 481 554 25,100 1,020 Climbing FlightAware
02:47PM 38.7120 -121.0890 53° Northeast 493 567 25,500 900 Climbing FlightAware
02:48PM 38.7600 -121.0070 53° Northeast 497 572 26,100 1,080 Climbing FlightAware
02:48PM 38.8070 -120.9250 54° Northeast 501 577 26,800 1,020 Climbing FlightAware
02:49PM 38.8570 -120.8390 53° Northeast 506 582 27,400 960 Climbing FlightAware
02:50PM 38.9080 -120.7510 53° Northeast 509 586 28,000 1,080 Climbing FlightAware
02:50PM 38.9540 -120.6720 53° Northeast 513 590 28,600 1,020 Climbing FlightAware
02:51PM 39.0050 -120.5840 53° Northeast 514 592 29,200 1,080 Climbing FlightAware
02:51PM 39.0520 -120.5010 54° Northeast 512 589 29,900 1,200 Climbing FlightAware
02:52PM 39.1000 -120.4180 53° Northeast 510 587 30,600 1,200 Climbing FlightAware
02:53PM 39.1590 -120.3150 54° Northeast 510 587 31,400 960 Climbing FlightAware
02:53PM 39.2000 -120.2420 54° Northeast 510 587 31,800 960 Climbing FlightAware
02:54PM 39.2530 -120.1500 53° Northeast 511 588 32,500 1,020 Climbing FlightAware
02:54PM 39.3040 -120.0600 54° Northeast 510 587 33,100 840 Climbing FlightAware
02:55PM 39.3480 -119.9820 54° Northeast 511 588 33,500 900 Climbing FlightAware
02:55PM 39.3920 -119.9040 54° Northeast 510 587 34,100 900 Climbing FlightAware
02:56PM 39.4470 -119.8060 54° Northeast 512 589 34,600 720 Climbing FlightAware
02:57PM 39.4940 -119.7230 54° Northeast 512 589 35,000 300 Climbing FlightAware
02:57PM 39.5420 -119.6360 54° Northeast 515 593 35,000  Level FlightAware
02:58PM 39.5900 -119.5510 54° Northeast 514 592 35,000  Level FlightAware
02:58PM 39.6400 -119.4610 54° Northeast 513 590 35,000  Level FlightAware
02:59PM 39.6920 -119.3670 54° Northeast 514 592 35,000  Level FlightAware
03:00PM 39.7370 -119.2860 54° Northeast 514 592 35,000  Level FlightAware
03:00PM 39.7900 -119.1900 54° Northeast 513 590 35,000  Level FlightAware
03:01PM 39.8400 -119.1000 54° Northeast 513 590 35,000  Level FlightAware
03:01PM 39.8840 -119.0210 54° Northeast 512 589 35,000  Level FlightAware
03:02PM 39.9360 -118.9250 55° Northeast 511 588 35,000  Level FlightAware
03:02PM 39.9770 -118.8490 55° Northeast 511 588 35,000  Level FlightAware
03:03PM 40.0260 -118.7590 55° Northeast 510 587 35,000  Level FlightAware
03:04PM 40.0700 -118.6790 54° Northeast 510 587 35,000  Level FlightAware
03:04PM 40.1210 -118.5760 57° Northeast 511 588 35,000  Level FlightAware
03:05PM 40.1540 -118.4730 67° East 511 588 35,000  Level FlightAware
03:05PM 40.1830 -118.3700 70° East 512 589 35,000  Level FlightAware
03:06PM 40.2060 -118.2850 70° East 511 588 35,000  Level FlightAware
03:07PM 40.2370 -118.1720 70° East 511 588 35,000  Level FlightAware
03:07PM 40.2690 -118.0530 71° East 511 588 35,000  Level FlightAware
03:08PM 40.2960 -117.9570 70° East 511 588 35,000  Level FlightAware
03:09PM 40.3200 -117.8680 70° East 511 588 35,000  Level FlightAware
03:09PM 40.3460 -117.7760 70° East 511 588 35,000  Level FlightAware
03:10PM 40.3720 -117.6820 70° East 511 588 35,000  Level FlightAware
03:10PM 40.3970 -117.5930 70° East 511 588 35,000  Level FlightAware
03:11PM 40.4210 -117.5040 70° East 511 588 35,000  Level FlightAware
03:12PM 40.4460 -117.4140 70° East 511 588 35,000  Level FlightAware
03:12PM 40.4720 -117.3200 70° East 511 588 35,000  Level FlightAware
03:13PM 40.4960 -117.2360 69° East 511 588 35,000  Level FlightAware
03:13PM 40.5220 -117.1390 71° East 511 588 35,000  Level FlightAware
03:14PM 40.5490 -117.0420 70° East 511 588 35,000  Level FlightAware
03:15PM 40.5750 -116.9470 70° East 511 588 35,000  Level FlightAware
03:15PM 40.6020 -116.8500 70° East 511 588 35,000  Level FlightAware
03:16PM 40.6270 -116.7610 70° East 511 588 35,000  Level FlightAware
03:17PM 40.6520 -116.6690 70° East 511 588 35,000  Level FlightAware
03:17PM 40.6800 -116.5690 70° East 511 588 35,000  Level FlightAware
03:18PM 40.7640 -116.2010 73° East 515 593 35,000  Level FlightAware ADS-B
03:18PM 40.7893 -116.1060 71° East 515 593 35,000  Level FlightAware ADS-B
03:19PM 40.8132 -116.0160 71° East 515 593 35,000  Level FlightAware ADS-B
03:19PM 40.8371 -115.9250 71° East 516 594 35,000  Level FlightAware ADS-B
03:20PM 40.8607 -115.8350 71° East 517 595 35,000  Level FlightAware ADS-B
03:22PM 40.9747 -115.3970 71° East 518 596 35,000  Level FlightAware ADS-B
03:23PM 41.0050 -115.2790 71° East 518 596 35,000  Level FlightAware ADS-B
03:23PM 41.0281 -115.1890 71° East 518 596 35,000  Level FlightAware ADS-B
03:24PM 41.0522 -115.0940 71° East 518 596 35,000  Level FlightAware ADS-B
03:25PM 41.0764 -114.9990 71° East 518 596 35,000  Level FlightAware ADS-B
03:25PM 41.0996 -114.9070 71° East 518 596 35,000  Level FlightAware ADS-B
03:26PM 41.1227 -114.8160 71° East 518 596 35,000  Level FlightAware ADS-B
03:26PM 41.1492 -114.7100 72° East 518 596 35,000  Level FlightAware ADS-B
03:27PM 41.1729 -114.6150 72° East 518 596 35,000  Level FlightAware ADS-B
03:27PM 41.1955 -114.5240 72° East 518 596 35,000  Level FlightAware ADS-B
03:28PM 41.2184 -114.4320 72° East 518 596 35,000  Level FlightAware ADS-B
03:28PM 41.2408 -114.3410 72° East 519 597 35,000  Level FlightAware ADS-B
03:29PM 41.2631 -114.2510 72° East 519 597 35,000  Level FlightAware ADS-B
03:29PM 41.2871 -114.1530 72° East 519 597 35,000  Level FlightAware ADS-B
03:30PM 41.3099 -114.0590 72° East 519 597 35,000 60 Level FlightAware ADS-B
03:30PM 41.3324 -113.9670 72° East 520 598 35,100 540 Climbing FlightAware ADS-B
03:31PM 41.3471 -113.9050 72° East 519 597 35,500 1,020 Climbing FlightAware ADS-B
03:31PM 41.3587 -113.8440 76° East 517 595 35,800 960 Climbing FlightAware ADS-B
03:31PM 41.3693 -113.7490 82° East 516 594 36,300 960 Climbing FlightAware ADS-B
03:32PM 41.3764 -113.6510 84° East 513 590 36,800 660 Climbing FlightAware ADS-B
03:32PM 41.3825 -113.5560 85° East 515 593 37,000 180 Climbing FlightAware ADS-B
03:33PM 41.3884 -113.4620 85° East 514 592 37,000  Level FlightAware ADS-B
03:34PM 41.3953 -113.3510 85° East 513 590 37,000  Level FlightAware ADS-B
03:34PM 41.4014 -113.2540 85° East 512 589 37,000  Level FlightAware ADS-B
03:35PM 41.4075 -113.1560 85° East 513 590 37,000  Level FlightAware ADS-B
03:35PM 41.4134 -113.0610 85° East 512 589 37,000  Level FlightAware ADS-B
03:36PM 41.4224 -112.9140 85° East 511 588 37,000  Level FlightAware ADS-B
03:36PM 41.4287 -112.8090 85° East 511 588 37,000  Level FlightAware ADS-B
03:37PM 41.4343 -112.7140 85° East 511 588 37,000  Level FlightAware ADS-B
03:37PM 41.4398 -112.6180 86° East 509 586 37,000  Level FlightAware ADS-B
03:38PM 41.4454 -112.5210 86° East 509 586 37,000  Level FlightAware ADS-B
03:38PM 41.4509 -112.4240 86° East 509 586 37,000  Level FlightAware ADS-B
03:39PM 41.4561 -112.3290 86° East 509 586 37,000  Level FlightAware ADS-B
03:39PM 41.4612 -112.2360 86° East 509 586 37,000  Level FlightAware ADS-B
03:40PM 41.4663 -112.1410 86° East 508 585 37,000  Level FlightAware ADS-B
03:41PM 41.4714 -112.0450 86° East 508 585 37,000  Level FlightAware ADS-B
03:41PM 41.4763 -111.9490 86° East 508 585 37,000  Level FlightAware ADS-B
03:42PM 41.4814 -111.8500 86° East 509 586 37,000  Level FlightAware ADS-B
03:42PM 41.4886 -111.7060 86° East 509 586 37,000  Level FlightAware ADS-B
03:43PM 41.4933 -111.6120 86° East 509 586 37,000  Level FlightAware ADS-B
03:43PM 41.4979 -111.5160 86° East 510 587 37,000  Level FlightAware ADS-B
03:44PM 41.5024 -111.4210 86° East 511 588 37,000  Level FlightAware ADS-B
03:44PM 41.5068 -111.3270 86° East 512 589 37,000  Level FlightAware ADS-B
03:45PM 41.5111 -111.2320 87° East 512 589 37,000  Level FlightAware ADS-B
03:45PM 41.5154 -111.1370 87° East 512 589 37,000  Level FlightAware ADS-B
03:46PM 41.5196 -111.0410 87° East 512 589 37,000  Level FlightAware ADS-B
03:46PM 41.5237 -110.9460 87° East 513 590 37,000  Level FlightAware ADS-B
03:47PM 41.5279 -110.8490 87° East 513 590 37,000  Level FlightAware ADS-B
03:47PM 41.5319 -110.7510 87° East 513 590 37,000  Level FlightAware ADS-B
03:48PM 41.5380 -110.6010 87° East 513 590 37,000  Level FlightAware
03:49PM 41.5430 -110.4860 87° East 512 589 37,000  Level FlightAware
03:49PM 41.5460 -110.3880 88° East 513 590 37,000  Level FlightAware
03:50PM 41.5510 -110.2690 87° East 514 592 37,000  Level FlightAware
03:51PM 41.5550 -110.1640 87° East 514 592 37,000  Level FlightAware
03:51PM 41.5600 -110.0370 87° East 514 592 37,000  Level FlightAware
03:52PM 41.5640 -109.9350 87° East 514 592 37,000  Level FlightAware
03:53PM 41.5680 -109.8300 87° East 514 592 37,000  Level FlightAware
03:53PM 41.5710 -109.7380 87° East 514 592 37,000  Level FlightAware
03:54PM 41.5750 -109.6380 87° East 514 592 37,000  Level FlightAware
03:54PM 41.5790 -109.5410 87° East 514 592 37,000  Level FlightAware
03:55PM 41.5840 -109.4220 87° East 514 592 37,000  Level FlightAware
03:56PM 41.5870 -109.3280 88° East 514 592 37,000  Level FlightAware
03:56PM 41.5910 -109.2330 87° East 514 592 37,000  Level FlightAware
03:57PM 41.5950 -109.1330 87° East 514 592 37,000  Level FlightAware
03:58PM 41.5990 -109.0360 87° East 514 592 37,000  Level FlightAware
03:58PM 41.6020 -108.9450 87° East 514 592 37,000  Level FlightAware
03:59PM 41.6060 -108.8450 87° East 514 592 37,000  Level FlightAware
03:59PM 41.6100 -108.7470 87° East 514 592 37,000  Level FlightAware
04:00PM 41.6406 -108.3411 87° East 519 597 37,000  Level Salt Lake Center
04:01PM 41.6542 -108.1594 84° East 517 595 37,000  Level Salt Lake Center
04:02PM 41.6681 -107.9767 84° East 516 594 37,000  Level Salt Lake Center
04:03PM 41.6783 -107.8231 85° East 516 594 37,000  Level Denver Center
04:09PM 41.7520 -106.6780 85° East 515 593 37,000  Level FlightAware
04:10PM 41.7590 -106.5720 85° East 515 593 37,000  Level FlightAware
04:10PM 41.7660 -106.4290 86° East 516 594 37,000  Level FlightAware
04:11PM 41.7720 -106.3190 86° East 515 593 37,000  Level FlightAware
04:11PM 41.7800 -106.1870 85° East 516 594 37,000  Level FlightAware
04:12PM 41.7860 -106.0760 86° East 517 595 37,000  Level FlightAware
04:13PM 41.7920 -105.9630 86° East 518 596 37,000  Level FlightAware
04:13PM 41.7980 -105.8390 86° East 519 597 37,000  Level FlightAware
04:14PM 41.8030 -105.7400 86° East 521 600 37,000  Level FlightAware
04:14PM 41.8080 -105.6480 86° East 520 598 37,000  Level FlightAware
04:15PM 41.8160 -105.4780 86° East 520 598 37,000  Level FlightAware
04:16PM 41.8220 -105.3580 86° East 519 597 37,000  Level FlightAware
04:16PM 41.8270 -105.2420 87° East 517 595 37,000  Level FlightAware
04:17PM 41.8310 -105.1550 86° East 520 598 37,000  Level FlightAware
04:17PM 41.8370 -105.0260 86° East 520 598 37,000  Level FlightAware
04:18PM 41.8420 -104.9010 87° East 521 600 37,000  Level FlightAware
04:19PM 41.8490 -104.7670 86° East 522 601 37,000  Level FlightAware
04:19PM 41.8540 -104.6330 87° East 521 600 37,000  Level FlightAware
04:20PM 41.8580 -104.5160 87° East 520 598 37,000  Level FlightAware
04:21PM 41.8630 -104.3930 87° East 520 598 37,000  Level FlightAware
04:21PM 41.8670 -104.2830 87° East 521 600 37,000  Level FlightAware
04:22PM 41.8710 -104.1840 87° East 521 600 37,000  Level FlightAware
04:23PM 41.8760 -104.0460 87° East 522 601 37,000  Level FlightAware
04:23PM 41.8800 -103.9350 87° East 521 600 37,000  Level FlightAware
04:24PM 41.8830 -103.8390 88° East 521 600 37,000  Level FlightAware
04:24PM 41.8870 -103.7160 87° East 521 600 37,000  Level FlightAware
04:25PM 41.8920 -103.5920 87° East 521 600 37,000  Level FlightAware
04:26PM 41.8950 -103.4930 88° East 521 600 37,000  Level FlightAware
04:26PM 41.9110 -103.3580 81° East 518 596 37,000  Level FlightAware
04:27PM 41.9250 -103.2630 79° East 516 594 37,000  Level FlightAware
04:27PM 41.9440 -103.1270 79° East 516 594 37,000  Level FlightAware
04:28PM 41.9600 -103.0110 79° East 516 594 37,000  Level FlightAware
04:28PM 41.9710 -102.9350 79° East 517 595 37,000  Level FlightAware
04:29PM 41.9870 -102.8250 79° East 517 595 37,000  Level FlightAware
04:30PM 42.0010 -102.7250 79° East 517 595 37,000  Level FlightAware
04:30PM 42.0150 -102.6280 79° East 517 595 37,000  Level FlightAware
04:31PM 42.0290 -102.5290 79° East 517 595 37,000  Level FlightAware
04:31PM 42.0430 -102.4350 79° East 517 595 37,000  Level FlightAware
04:32PM 42.0570 -102.3380 79° East 517 595 37,000  Level FlightAware
04:33PM 42.0710 -102.2360 79° East 517 595 37,000  Level FlightAware
04:33PM 42.0850 -102.1390 79° East 517 595 37,000  Level FlightAware
04:34PM 42.0990 -102.0420 79° East 517 595 37,000  Level FlightAware
04:34PM 42.1130 -101.9480 79° East 517 595 37,000  Level FlightAware
04:35PM 42.1270 -101.8490 79° East 517 595 37,000  Level FlightAware
04:36PM 42.1420 -101.7490 79° East 517 595 37,000  Level FlightAware
04:36PM 42.1560 -101.6520 79° East 517 595 37,000  Level FlightAware
04:37PM 42.1700 -101.5530 79° East 517 595 37,000  Level FlightAware
04:38PM 42.1840 -101.4560 79° East 517 595 37,000  Level FlightAware
04:38PM 42.1970 -101.3610 80° East 517 595 37,000  Level FlightAware
04:39PM 42.2244 -100.9572 80° East 518 596 37,000  Level Denver Center
04:40PM 42.2453 -100.7769 81° East 510 587 37,000  Level Denver Center
04:41PM 42.2703 -100.5625 81° East 516 594 37,000  Level Denver Center
04:42PM 42.2919 -100.3783 81° East 518 596 37,000  Level Denver Center
04:43PM 42.3069 -100.2364 82° East 517 595 37,000  Level Minneapolis Center
04:44PM 42.3289 -100.0472 81° East 513 590 37,000  Level Minneapolis Center
04:45PM 42.3539 -99.8158 82° East 516 594 37,000  Level Minneapolis Center
04:46PM 42.3744 -99.6244 82° East 515 593 37,000  Level Minneapolis Center
04:47PM 42.3953 -99.4325 82° East 516 594 37,000  Level Minneapolis Center
04:48PM 42.4186 -99.2022 82° East 513 590 37,000  Level Denver Center
04:49PM 42.4381 -99.0142 82° East 510 587 37,000  Level Minneapolis Center
04:50PM 42.4575 -98.8233 82° East 511 588 37,000  Level Minneapolis Center
04:51PM 42.4733 -98.6336 83° East 508 585 37,000  Level Minneapolis Center
04:57PM 42.5240 -97.5190 83° East 498 573 37,000  Level FlightAware
04:58PM 42.5300 -97.3810 87° East 497 572 37,000  Level FlightAware
04:58PM 42.5340 -97.2820 87° East 496 571 37,000  Level FlightAware
04:59PM 42.5380 -97.1660 87° East 495 570 37,000  Level FlightAware
05:00PM 42.5440 -97.0250 87° East 495 570 37,000  Level FlightAware
05:00PM 42.5480 -96.9110 87° East 493 567 37,000  Level FlightAware
05:01PM 42.5510 -96.8070 88° East 493 567 37,000  Level FlightAware
05:01PM 42.5560 -96.6840 87° East 493 567 37,000  Level FlightAware
05:02PM 42.5600 -96.5500 88° East 493 567 37,000  Level FlightAware
05:03PM 42.5630 -96.4430 88° East 493 567 37,000  Level FlightAware
05:03PM 42.5680 -96.3050 87° East 493 567 37,000  Level FlightAware
05:04PM 42.5710 -96.1930 88° East 492 566 37,000  Level FlightAware
05:05PM 42.5740 -96.0790 88° East 491 565 37,000  Level FlightAware
05:05PM 42.5770 -95.9750 88° East 489 563 37,000  Level FlightAware
05:06PM 42.5810 -95.8550 87° East 489 563 37,000  Level FlightAware
05:06PM 42.5850 -95.7460 87° East 487 560 37,000  Level FlightAware
05:07PM 42.5900 -95.6170 87° East 486 559 37,000  Level FlightAware
05:08PM 42.5950 -95.4940 87° East 486 559 37,000  Level FlightAware
05:08PM 42.5990 -95.3940 87° East 486 559 37,000  Level FlightAware
05:09PM 42.6030 -95.2960 87° East 486 559 37,000  Level FlightAware
05:09PM 42.6070 -95.1930 87° East 486 559 37,000  Level FlightAware
05:10PM 42.6110 -95.0770 87° East 486 559 37,000  Level FlightAware
05:11PM 42.6140 -94.9840 87° East 486 559 37,000  Level FlightAware
05:11PM 42.6190 -94.8370 87° East 486 559 37,000  Level FlightAware
05:12PM 42.6220 -94.7470 87° East 486 559 37,000  Level FlightAware
05:13PM 42.6250 -94.6370 88° East 485 558 37,000  Level FlightAware
05:13PM 42.6290 -94.5370 87° East 485 558 37,000  Level FlightAware
05:14PM 42.6320 -94.4200 88° East 485 558 37,000  Level FlightAware
05:14PM 42.6350 -94.3160 88° East 485 558 37,000  Level FlightAware
05:15PM 42.6380 -94.2060 88° East 485 558 37,000  Level FlightAware
05:15PM 42.6410 -94.0960 88° East 485 558 37,000  Level FlightAware
05:16PM 42.6440 -93.9950 88° East 485 558 37,000  Level FlightAware
05:17PM 42.6460 -93.9060 88° East 486 559 37,000  Level FlightAware
05:17PM 42.6490 -93.7810 88° East 487 560 37,000  Level FlightAware
05:18PM 42.6520 -93.6700 88° East 487 560 37,000  Level FlightAware
05:18PM 42.6540 -93.5620 89° East 487 560 37,000  Level FlightAware
05:19PM 42.6560 -93.4730 88° East 488 562 37,000  Level FlightAware
05:20PM 42.6590 -93.3590 88° East 488 562 37,000  Level FlightAware
05:20PM 42.6610 -93.2430 89° East 489 563 37,000  Level FlightAware
05:21PM 42.6630 -93.1330 89° East 489 563 37,000  Level FlightAware
05:21PM 42.6650 -93.0280 88° East 489 563 37,000  Level FlightAware
05:22PM 42.6670 -92.9130 89° East 489 563 37,000  Level FlightAware
05:22PM 42.6680 -92.8170 89° East 489 563 37,000  Level FlightAware
05:23PM 42.6700 -92.7200 88° East 489 563 37,000  Level FlightAware
05:24PM 42.6720 -92.5850 89° East 491 565 37,000  Level FlightAware
05:24PM 42.6730 -92.4800 89° East 492 566 37,000  Level FlightAware
05:25PM 42.6750 -92.3690 89° East 493 567 37,000  Level FlightAware
05:26PM 42.6760 -92.2540 89° East 495 570 37,000  Level FlightAware
05:26PM 42.6770 -92.1540 89° East 496 571 37,000  Level FlightAware
05:27PM 42.6780 -92.0440 89° East 497 572 37,000  Level FlightAware
05:27PM 42.6790 -91.9360 89° East 497 572 37,000  Level FlightAware
05:28PM 42.6800 -91.8120 89° East 496 571 37,000  Level FlightAware
05:28PM 42.6800 -91.7090 90° East 495 570 37,000  Level FlightAware
05:29PM 42.6810 -91.6060 89° East 495 570 37,000  Level FlightAware
05:30PM 42.6810 -91.5060 90° East 495 570 37,000  Level FlightAware
05:30PM 42.6820 -91.3850 89° East 495 570 37,000  Level FlightAware
05:31PM 42.6820 -91.2790 90° East 494 568 37,000  Level FlightAware
05:31PM 42.6820 -91.1730 90° East 494 568 37,000  Level FlightAware
05:32PM 42.6820 -91.0370 90° East 494 568 37,000  Level FlightAware
05:33PM 42.6820 -90.9360 90° East 493 567 37,000  Level FlightAware
05:33PM 42.6820 -90.8260 90° East 493 567 37,000  Level FlightAware
05:34PM 42.6820 -90.7150 90° East 493 567 37,000  Level FlightAware
05:34PM 42.6820 -90.5990 90° East 491 565 37,000  Level FlightAware
05:35PM 42.6810 -90.5000 91° East 490 564 37,000 240 Level FlightAware
05:35PM 42.6810 -90.4030 90° East 488 562 37,300 660 Climbing FlightAware
05:36PM 42.6800 -90.2930 91° East 492 566 37,800 660 Climbing FlightAware
05:37PM 42.6790 -90.1880 91° East 495 570 38,100 420 Climbing FlightAware
05:37PM 42.6780 -90.0570 91° East 501 577 38,400 480 Climbing FlightAware
05:38PM 42.6770 -89.9490 91° East 503 579 38,700 540 Climbing FlightAware
05:38PM 42.6760 -89.8480 91° East 503 579 39,000 240 Climbing FlightAware
05:39PM 42.6750 -89.7460 91° East 498 573 39,000  Level FlightAware
05:40PM 42.6740 -89.6430 91° East 496 571 39,000  Level FlightAware
05:40PM 42.6730 -89.5240 91° East 497 572 39,000  Level FlightAware
05:41PM 42.6710 -89.4110 91° East 498 573 39,000  Level FlightAware
05:41PM 42.6690 -89.2920 91° East 498 573 39,000  Level FlightAware
05:42PM 42.6680 -89.1990 91° East 498 573 39,000  Level FlightAware
05:43PM 42.6660 -89.0750 91° East 499 574 39,000  Level FlightAware
05:43PM 42.6640 -88.9820 92° East 499 574 39,000  Level FlightAware
05:44PM 42.6620 -88.8620 91° East 499 574 39,000  Level FlightAware
05:44PM 42.6600 -88.7500 91° East 499 574 39,000  Level FlightAware
05:45PM 42.6570 -88.6370 92° East 498 573 39,000  Level FlightAware
05:45PM 42.6550 -88.5360 92° East 498 573 39,000  Level FlightAware
05:46PM 42.6530 -88.4310 91° East 497 572 39,000  Level FlightAware
05:47PM 42.6500 -88.3130 92° East 497 572 39,000  Level FlightAware
05:47PM 42.6480 -88.2080 91° East 497 572 39,000  Level FlightAware
05:48PM 42.6450 -88.0950 92° East 498 573 39,000  Level FlightAware
05:48PM 42.6420 -87.9820 92° East 497 572 39,000  Level FlightAware
05:49PM 42.6390 -87.8860 92° East 497 572 39,000  Level FlightAware
05:50PM 42.6360 -87.7780 92° East 497 572 39,000  Level FlightAware
05:50PM 42.6330 -87.6490 92° East 497 572 39,000  Level FlightAware
05:51PM 42.6290 -87.5240 92° East 498 573 39,000  Level FlightAware
05:51PM 42.6260 -87.4320 93° East 498 573 39,000  Level FlightAware
05:52PM 42.6220 -87.3100 93° East 498 573 39,000  Level FlightAware
05:53PM 42.6190 -87.2090 92° East 499 574 39,000  Level FlightAware
05:53PM 42.6150 -87.0950 93° East 499 574 39,000  Level FlightAware
05:54PM 42.6110 -86.9830 93° East 499 574 39,000  Level FlightAware
05:54PM 42.6070 -86.8890 93° East 500 575 39,000  Level FlightAware
05:55PM 42.6040 -86.7800 92° East 500 575 39,000  Level FlightAware
05:56PM 42.5990 -86.6550 93° East 501 577 39,000  Level FlightAware
05:56PM 42.5950 -86.5570 93° East 502 578 39,000  Level FlightAware
05:57PM 42.5900 -86.4370 93° East 502 578 39,000  Level FlightAware
05:57PM 42.5860 -86.3370 93° East 503 579 39,000  Level FlightAware
05:58PM 42.5810 -86.2180 93° East 503 579 39,000  Level FlightAware
05:58PM 42.5770 -86.1100 93° East 503 579 39,000  Level FlightAware
05:59PM 42.5720 -85.9990 93° East 503 579 39,000  Level FlightAware
06:00PM 42.5680 -85.9030 93° East 505 581 39,000  Level FlightAware
06:00PM 42.5630 -85.7920 93° East 506 582 39,000  Level FlightAware
06:01PM 42.5570 -85.6650 94° East 506 582 39,000  Level FlightAware
06:01PM 42.5510 -85.5510 94° East 506 582 39,000  Level FlightAware
06:02PM 42.5460 -85.4450 94° East 505 581 39,000  Level FlightAware
06:03PM 42.5410 -85.3290 93° East 504 580 39,000  Level FlightAware
06:03PM 42.5350 -85.2240 94° East 504 580 39,000  Level FlightAware
06:04PM 42.5300 -85.1210 94° East 505 581 39,000  Level FlightAware
06:04PM 42.5230 -84.9990 94° East 507 583 39,000  Level FlightAware
06:05PM 42.5180 -84.8980 94° East 509 586 39,000  Level FlightAware
06:05PM 42.5120 -84.7820 94° East 510 587 39,000  Level FlightAware
06:06PM 42.5060 -84.6710 94° East 511 588 39,000  Level FlightAware
06:07PM 42.4980 -84.5530 95° East 511 588 39,000  Level FlightAware
06:07PM 42.4910 -84.4490 95° East 512 589 39,000  Level FlightAware
06:08PM 42.4850 -84.3520 95° East 512 589 39,000  Level FlightAware
06:08PM 42.4790 -84.2600 95° East 513 590 39,000  Level FlightAware
06:09PM 42.4690 -84.1130 95° East 513 590 39,000  Level FlightAware
06:10PM 42.4610 -83.9960 95° East 512 589 39,000  Level FlightAware
06:10PM 42.4530 -83.8870 96° East 512 589 39,000  Level FlightAware
06:10PM 42.4480 -83.8130 95° East 511 588 39,000  Level FlightAware
06:11PM 42.4390 -83.6900 96° East 511 588 39,000  Level FlightAware
06:12PM 42.4310 -83.5770 95° East 510 587 39,000  Level FlightAware
06:12PM 42.4240 -83.4760 95° East 510 587 39,000  Level FlightAware
06:13PM 42.4160 -83.3700 96° East 510 587 39,000  Level FlightAware
06:13PM 42.4060 -83.2480 96° East 511 588 39,000  Level FlightAware
06:14PM 42.3980 -83.1390 96° East 510 587 39,000  Level FlightAware
06:15PM 42.3900 -83.0350 96° East 511 588 39,000  Level FlightAware
06:15PM 42.3800 -82.9130 96° East 512 589 39,000  Level FlightAware
06:16PM 42.3710 -82.7970 96° East 512 589 39,000  Level FlightAware
06:16PM 42.3630 -82.6900 96° East 512 589 39,000  Level FlightAware
06:17PM 42.3540 -82.5870 97° East 513 590 39,000  Level FlightAware
06:18PM 42.3450 -82.4730 96° East 512 589 39,000  Level FlightAware
06:18PM 42.3350 -82.3520 96° East 511 588 39,000  Level FlightAware
06:19PM 42.3260 -82.2470 97° East 509 586 39,000  Level FlightAware
06:19PM 42.3140 -82.1110 97° East 508 585 39,000  Level FlightAware
06:20PM 42.3060 -82.0190 97° East 507 583 39,000  Level FlightAware
06:21PM 42.2940 -81.8820 97° East 506 582 39,000  Level FlightAware
06:21PM 42.2830 -81.7550 97° East 506 582 39,000  Level FlightAware
06:22PM 42.2710 -81.6280 97° East 506 582 39,000  Level FlightAware
06:23PM 42.2620 -81.5260 97° East 507 583 39,000  Level FlightAware
06:23PM 42.2520 -81.4110 97° East 507 583 39,000  Level FlightAware
06:24PM 42.2420 -81.3080 97° East 509 586 39,000  Level FlightAware
06:24PM 42.2300 -81.1790 97° East 509 586 39,000  Level FlightAware
06:25PM 42.2190 -81.0690 98° East 510 587 39,000  Level FlightAware
06:26PM 42.2090 -80.9610 97° East 511 588 39,000  Level FlightAware
06:26PM 42.1980 -80.8500 98° East 511 588 39,000  Level FlightAware
06:27PM 42.1870 -80.7390 98° East 512 589 39,000  Level FlightAware
06:27PM 42.1750 -80.6120 97° East 511 588 39,000  Level FlightAware
06:28PM 42.1720 -80.5060 92° East 509 586 39,000  Level FlightAware
06:29PM 42.1710 -80.3940 91° East 509 586 39,000  Level FlightAware
06:29PM 42.1670 -80.2820 93° East 508 585 39,000  Level FlightAware
06:30PM 42.1510 -80.1740 101° East 508 585 39,000  Level FlightAware
06:30PM 42.1360 -80.0690 101° East 508 585 39,000  Level FlightAware
06:31PM 42.1200 -79.9580 101° East 505 581 39,000  Level FlightAware
06:32PM 42.1060 -79.8520 100° East 503 579 39,000  Level FlightAware
06:32PM 42.0860 -79.7330 103° East 501 577 39,000  Level FlightAware
06:33PM 42.0690 -79.6430 104° East 500 575 39,000  Level FlightAware
06:33PM 42.0480 -79.5310 104° East 497 572 39,000  Level FlightAware
06:34PM 42.0270 -79.4280 105° East 496 571 39,000  Level FlightAware
06:34PM 42.0050 -79.3320 107° East 494 568 39,000  Level FlightAware
06:35PM 41.9800 -79.2230 107° East 491 565 39,000  Level FlightAware
06:36PM 41.9540 -79.1080 107° East 490 564 39,000  Level FlightAware
06:36PM 41.9240 -78.9760 107° East 488 562 39,000  Level FlightAware
06:37PM 41.9010 -78.8740 107° East 484 557 39,000  Level FlightAware
06:38PM 41.8750 -78.7600 107° East 480 552 39,000  Level FlightAware
06:38PM 41.8530 -78.6650 107° East 479 551 39,000  Level FlightAware
06:39PM 41.8260 -78.5620 109° East 478 550 39,000  Level FlightAware
06:39PM 41.8000 -78.4670 110° East 480 552 39,000  Level FlightAware
06:40PM 41.7740 -78.3740 111° Southeast 482 555 39,000  Level FlightAware
06:41PM 41.7420 -78.2720 113° Southeast 484 557 39,000  Level FlightAware
06:41PM 41.7020 -78.1500 114° Southeast 487 560 39,000  Level FlightAware
06:42PM 41.6700 -78.0500 113° Southeast 489 563 39,000  Level FlightAware
06:43PM 41.6370 -77.9440 113° Southeast 490 564 39,000  Level FlightAware
06:43PM 41.6070 -77.8510 113° Southeast 491 565 39,000  Level FlightAware
06:44PM 41.5740 -77.7510 114° Southeast 490 564 39,000  Level FlightAware
06:44PM 41.5410 -77.6470 113° Southeast 492 566 39,000  Level FlightAware
06:45PM 41.5130 -77.5580 113° Southeast 492 566 39,000  Level FlightAware
06:45PM 41.4820 -77.4600 113° Southeast 491 565 39,000  Level FlightAware
06:46PM 41.4530 -77.3740 114° Southeast 489 563 39,000  Level FlightAware
06:47PM 41.4130 -77.2700 117° Southeast 490 564 39,000  Level FlightAware
06:47PM 41.3730 -77.1710 118° Southeast 488 562 39,000  Level FlightAware
06:48PM 41.3300 -77.0640 118° Southeast 488 562 39,000  Level FlightAware
06:48PM 41.2990 -76.9860 118° Southeast 487 560 39,000  Level FlightAware
06:49PM 41.2600 -76.8870 118° Southeast 485 558 39,000  Level FlightAware
06:50PM 41.2270 -76.7950 115° Southeast 483 556 39,000  Level FlightAware
06:50PM 41.1930 -76.7010 116° Southeast 484 557 39,000  Level FlightAware
06:51PM 41.1660 -76.6110 112° Southeast 482 555 39,000  Level FlightAware
06:51PM 41.1380 -76.5020 109° East 480 552 39,000  Level FlightAware
06:52PM 41.1340 -76.3910 93° East 477 549 39,000 -480 Level FlightAware
06:53PM 41.1400 -76.2870 86° East 477 549 38,400 -2,040 Descending FlightAware
06:53PM 41.1400 -76.1860 90° East 477 549 36,700 -3,180 Descending FlightAware
06:54PM 41.1400 -76.0690 90° East 480 552 34,500 -3,300 Descending FlightAware
06:54PM 41.1420 -75.9770 88° East 486 559 32,900 -3,180 Descending FlightAware
06:55PM 41.1440 -75.8590 89° East 491 565 30,900 -3,120 Descending FlightAware
06:56PM 41.1460 -75.7650 88° East 493 567 29,300 -2,880 Descending FlightAware
06:56PM 41.1480 -75.6510 89° East 488 562 27,600 -2,580 Descending FlightAware
06:57PM 41.1500 -75.5550 88° East 478 550 26,300 -2,520 Descending FlightAware
06:57PM 41.1510 -75.4510 89° East 472 543 24,800 -2,220 Descending FlightAware
06:58PM 41.1420 -75.3070 95° East 458 527 23,100 -1,320 Descending FlightAware
06:59PM 41.1180 -75.2270 112° Southeast 451 519 23,000 -120 Descending FlightAware
06:59PM 41.0860 -75.1310 114° Southeast 451 519 23,000  Level FlightAware
07:00PM 41.0540 -75.0390 115° Southeast 454 522 23,000  Level FlightAware
07:01PM 41.0210 -74.9420 114° Southeast 454 522 23,000 -360 Level FlightAware
07:01PM 40.9940 -74.8420 110° East 455 524 22,600 -960 Descending FlightAware
07:02PM 40.9830 -74.7570 100° East 454 522 21,900 -1,320 Descending FlightAware ADS-B
07:02PM 40.9720 -74.6480 98° East 448 516 21,100 -1,200 Descending FlightAware
07:03PM 40.9684 -74.6180 99° East 447 514 20,900 -1,200 Descending FlightAware ADS-B
07:04PM 40.9520 -74.4610 98° East 443 510 19,700 -1,260 Descending FlightAware
07:04PM 40.9413 -74.3668 99° East 440 506 19,000 -960 Descending FlightAware ADS-B
07:04PM 40.9397 -74.3383 94° East 438 504 19,000  Level FlightAware ADS-B
07:04PM 40.9398 -74.3247 89° East 435 501 19,000  Level FlightAware ADS-B
07:05PM 40.9431 -74.2373 87° East 415 478 19,000  Level FlightAware ADS-B
07:06PM 40.9233 -74.1661 110° East 382 440 19,000  Level FlightAware ADS-B
07:06PM 40.9160 -74.1544 130° Southeast 352 405 19,000  Level FlightAware ADS-B
07:06PM 40.9091 -74.1458 137° Southeast 350 403 19,000  Level FlightAware ADS-B
07:06PM 40.9027 -74.1392 142° Southeast 346 398 19,000  Level FlightAware ADS-B
07:06PM 40.8857 -74.1270 152° Southeast 338 389 19,000  Level FlightAware ADS-B
07:06PM 40.8545 -74.1135 162° South 335 386 19,000 -360 Level FlightAware ADS-B
07:07PM 40.8096 -74.0963 164° South 329 379 18,700 -1,020 Descending FlightAware ADS-B
07:07PM 40.7576 -74.0753 163° South 327 376 17,900 -1,560 Descending FlightAware ADS-B
07:08PM 40.7062 -74.0548 163° South 333 383 16,900 -1,500 Descending FlightAware ADS-B
07:09PM 40.6392 -74.0288 164° South 330 380 15,900 -1,320 Descending FlightAware ADS-B
07:10PM 40.5803 -73.9888 153° Southeast 327 376 15,000 -1,320 Descending FlightAware ADS-B
07:10PM 40.5360 -73.9460 144° Southeast 328 377 14,100 -1,440 Descending FlightAware
07:11PM 40.4990 -73.9120 145° Southeast 323 372 13,300 -1,860 Descending FlightAware
07:11PM 40.4580 -73.8730 144° Southeast 321 369 12,100 -2,100 Descending FlightAware
07:12PM 40.4130 -73.8310 145° Southeast 315 362 11,000 -1,800 Descending FlightAware
07:13PM 40.3670 -73.7900 146° Southeast 299 344 9,900 -1,740 Descending FlightAware
07:13PM 40.3450 -73.7700 145° Southeast 292 336 9,300 -2,040 Descending FlightAware
07:13PM 40.3280 -73.7540 144° Southeast 288 331 8,700 -2,400 Descending FlightAware
07:13PM 40.3150 -73.7390 139° Southeast 288 331 8,200 -1,920 Descending FlightAware
07:13PM 40.3110 -73.7300 120° Southeast 289 333 8,000 -1,680 Descending FlightAware
07:14PM 40.3060 -73.7160 115° Southeast 290 334 7,700 -2,880 Descending FlightAware
07:14PM 40.3050 -73.6980 94° East 292 336 7,200 -2,340 Descending FlightAware
07:14PM 40.3130 -73.6670 71° East 290 334 6,500 -1,680 Descending FlightAware
07:14PM 40.3300 -73.6460 43° Northeast 292 336 6,100 -1,380 Descending FlightAware
07:15PM 40.3620 -73.6140 37° Northeast 288 331 5,500 -1,200 Descending FlightAware
07:15PM 40.3850 -73.5980 28° Northeast 290 334 5,200 -600 Descending FlightAware
07:16PM 40.4060 -73.5830 29° Northeast 288 331 5,100 -540 Descending FlightAware
07:16PM 40.4260 -73.5690 28° Northeast 283 326 4,900 -1,200 Descending FlightAware
07:16PM 40.4520 -73.5500 29° Northeast 284 327 4,400 -1,140 Descending FlightAware
07:17PM 40.4780 -73.5310 29° Northeast 285 328 4,100 -540 Descending FlightAware
07:17PM 40.5030 -73.5130 29° Northeast 283 326 4,000 -180 Descending FlightAware
07:17PM 40.5260 -73.4970 28° Northeast 281 323 4,000 120 Level FlightAware
07:18PM 40.5470 -73.4820 28° Northeast 285 328 4,100 120 Climbing FlightAware
07:18PM 40.5710 -73.4650 28° Northeast 285 328 4,100  Level FlightAware
07:18PM 40.5990 -73.4490 23° Northeast 283 326 4,100  Level FlightAware
07:18PM 40.6070 -73.4490 360° North 281 323 4,100 -420 Level FlightAware
07:19PM 40.6350 -73.4530 354° North 274 315 3,900 -840 Descending FlightAware
07:19PM 40.6600 -73.4590 350° North 273 314 3,500 -1,080 Descending FlightAware
07:19PM 40.6820 -73.4640 350° North 270 311 3,200 -780 Descending FlightAware
07:20PM 40.7100 -73.4700 351° North 257 296 3,000 -180 Descending FlightAware
07:20PM 40.7310 -73.4750 350° North 239 275 3,100  Climbing FlightAware
07:20PM 40.7450 -73.4810 342° North 230 265 3,000 -780 Descending FlightAware
07:20PM 40.7520 -73.4880 323° Northwest 224 258 2,800 -1,020 Descending FlightAware
07:21PM 40.7590 -73.5000 308° West 219 252 2,700 -780 Descending FlightAware
07:21PM 40.7630 -73.5090 300° West 214 246 2,600 -960 Descending FlightAware
07:21PM 40.7710 -73.5290 298° West 214 246 2,300 -780 Descending FlightAware
07:21PM 40.7810 -73.5510 301° West 210 242 2,100 -600 Descending FlightAware
07:22PM 40.7870 -73.5650 300° West 204 235 2,000 -180 Descending FlightAware
07:22PM 40.7980 -73.5880 302° West 187 215 2,000  Level FlightAware
07:22PM 40.8010 -73.6010 287° West 178 205 2,000 120 Level FlightAware
07:23PM 40.7960 -73.6230 253° West 168 193 2,100  Climbing FlightAware
07:23PM 40.7880 -73.6370 233° Southwest 173 199 2,000 -300 Descending FlightAware
07:23PM 40.7830 -73.6430 222° Southwest 175 201 2,000  Level FlightAware
07:23PM 40.7760 -73.6500 217° Southwest 175 201 2,000 120 Level FlightAware
07:24PM 40.7560 -73.6690 216° Southwest 175 201 2,100  Climbing FlightAware
07:24PM 40.7430 -73.6790 210° Southwest 175 201 2,000 -360 Descending FlightAware
07:24PM 40.7290 -73.6900 211° Southwest 173 199 1,900 -480 Descending FlightAware
07:25PM 40.7170 -73.6980 207° Southwest 158 182 1,700 -720 Descending FlightAware
07:25PM 40.7030 -73.7090 211° Southwest 138 159 1,400 -840 Descending FlightAware
07:25PM 40.6940 -73.7170 214° Southwest 132 152 1,200 -660 Descending FlightAware
07:26PM 40.6830 -73.7250 209° Southwest 130 150 1,000 -720 Descending FlightAware
07:26PM 40.6760 -73.7310 213° Southwest 131 151 800 -720 Descending FlightAware
07:26PM 40.6650 -73.7390 209° Southwest 128 147 600 -600 Descending FlightAware
07:26PM 40.6602 -73.7433 214° Southwest 128 147 500 -720 Descending FlightAware ADS-B
07:27PM 40.6430 -73.7570 211° Southwest 134 154 100 -780 Descending FlightAware
07:27PM 40.6350 -73.7630 210° Southwest 86 99 -360 Descending FlightAware